NOS760 EPGD-FMNN
Flight info
| Callsign | NOS760 |
|---|---|
| Flight time | N/A |
| Altitude | 21000 |
| Route | IRLUN N133 PENEX/N0489F270 N133 VIDEV/N0493F370 N133 LUBEN DCT GOSAK N133 LENOV DCT KEKED DCT URNEQ DCT OSTOV DCT ROZ DCT MES UN139 KUMBI/N0489F390 L612 BLT A16 CVO A727 LXR M999 PURAD R775 MANDA UR775 ALNAB R775 GABDA/N0487F410 UR775 UNPAR/N0490F400 UR775 BERIL/N0488F410 UR775 MAROF |
| Aircraft | B789/H-SDE1E2E3FGHIJ2J3J4J5M1RWXY/LB1D1 |
Departure
| Time | 2026-04-30 00:10 |
|---|---|
| Airport | Gdańsk Lech Wałęsa Airport (EPGD) |
Arrival
| Time | N/A |
|---|---|
| Airport | Nosy Be-Fascene International Airport (FMNN) |
| Time | Latitude | Longitude | Altitude | Speed | Heading |
|---|---|---|---|---|---|
| 2026-04-29 23:49 | 54.37901 | 18.47091 | 465 ft | 0 kts | 23° |
| 2026-04-30 00:03 | 54.37881 | 18.47076 | 463 ft | 4 kts | 23° |
| 2026-04-30 00:03 | 54.37856 | 18.47059 | 461 ft | 4 kts | 22° |
| 2026-04-30 00:03 | 54.37836 | 18.47040 | 459 ft | 4 kts | 75° |
| 2026-04-30 00:03 | 54.37838 | 18.47017 | 459 ft | 4 kts | 113° |
| 2026-04-30 00:04 | 54.37849 | 18.46976 | 461 ft | 4 kts | 113° |
| 2026-04-30 00:04 | 54.37851 | 18.46966 | 462 ft | 0 kts | 113° |
| 2026-04-30 00:06 | 54.37850 | 18.46968 | 462 ft | 1 kts | 113° |
| 2026-04-30 00:06 | 54.37845 | 18.46989 | 462 ft | 5 kts | 112° |
| 2026-04-30 00:06 | 54.37819 | 18.47099 | 456 ft | 13 kts | 112° |
| 2026-04-30 00:06 | 54.37778 | 18.47264 | 465 ft | 17 kts | 113° |
| 2026-04-30 00:07 | 54.37729 | 18.47463 | 467 ft | 19 kts | 113° |
| 2026-04-30 00:07 | 54.37675 | 18.47677 | 467 ft | 20 kts | 113° |
| 2026-04-30 00:07 | 54.37619 | 18.47901 | 471 ft | 21 kts | 113° |
| 2026-04-30 00:07 | 54.37563 | 18.48129 | 474 ft | 21 kts | 113° |
| 2026-04-30 00:08 | 54.37507 | 18.48353 | 482 ft | 19 kts | 113° |
| 2026-04-30 00:08 | 54.37456 | 18.48558 | 485 ft | 17 kts | 113° |
| 2026-04-30 00:08 | 54.37411 | 18.48740 | 489 ft | 16 kts | 113° |
| 2026-04-30 00:08 | 54.37365 | 18.48925 | 499 ft | 17 kts | 113° |
| 2026-04-30 00:09 | 54.37318 | 18.49116 | 500 ft | 18 kts | 113° |
| 2026-04-30 00:09 | 54.37264 | 18.49265 | 502 ft | 13 kts | 152° |
| 2026-04-30 00:09 | 54.37187 | 18.49219 | 501 ft | 13 kts | 220° |
| 2026-04-30 00:09 | 54.37147 | 18.49092 | 501 ft | 12 kts | 281° |
| 2026-04-30 00:10 | 54.37197 | 18.48886 | 500 ft | 38 kts | 293° |
| 2026-04-30 00:10 | 54.37396 | 18.48078 | 477 ft | 109 kts | 293° |
| 2026-04-30 00:10 | 54.37774 | 18.46541 | 463 ft | 168 kts | 292° |
| 2026-04-30 00:10 | 54.38222 | 18.44616 | 1212 ft | 164 kts | 287° |
| 2026-04-30 00:11 | 54.38571 | 18.42755 | 2294 ft | 168 kts | 288° |
| 2026-04-30 00:11 | 54.38959 | 18.40779 | 2791 ft | 187 kts | 298° |
| 2026-04-30 00:11 | 54.39663 | 18.38711 | 3150 ft | 213 kts | 301° |
| 2026-04-30 00:11 | 54.40318 | 18.36351 | 3822 ft | 220 kts | 296° |
| 2026-04-30 00:12 | 54.40623 | 18.33656 | 4026 ft | 253 kts | 264° |
| 2026-04-30 00:12 | 54.39776 | 18.30891 | 4586 ft | 270 kts | 224° |
| 2026-04-30 00:12 | 54.38139 | 18.29279 | 5318 ft | 281 kts | 189° |
| 2026-04-30 00:12 | 54.36208 | 18.29502 | 6109 ft | 282 kts | 160° |
| 2026-04-30 00:13 | 54.34402 | 18.30770 | 6869 ft | 285 kts | 152° |
| 2026-04-30 00:13 | 54.32555 | 18.32122 | 7633 ft | 290 kts | 156° |
| 2026-04-30 00:13 | 54.30621 | 18.33240 | 8435 ft | 295 kts | 160° |
| 2026-04-30 00:13 | 54.28649 | 18.34267 | 9232 ft | 298 kts | 160° |
| 2026-04-30 00:14 | 54.26662 | 18.35370 | 10030 ft | 302 kts | 158° |
| 2026-04-30 00:14 | 54.24686 | 18.36513 | 10714 ft | 308 kts | 158° |
| 2026-04-30 00:14 | 54.22563 | 18.37731 | 10849 ft | 335 kts | 159° |
| 2026-04-30 00:14 | 54.20256 | 18.39026 | 10918 ft | 362 kts | 159° |
| 2026-04-30 00:15 | 54.17783 | 18.40409 | 11027 ft | 385 kts | 159° |
| 2026-04-30 00:15 | 54.15230 | 18.41839 | 11781 ft | 386 kts | 159° |
| 2026-04-30 00:15 | 54.12656 | 18.43287 | 12411 ft | 392 kts | 159° |
| 2026-04-30 00:15 | 54.10054 | 18.44750 | 13077 ft | 396 kts | 159° |
| 2026-04-30 00:16 | 54.07423 | 18.46224 | 13709 ft | 401 kts | 159° |
| 2026-04-30 00:16 | 54.04751 | 18.47717 | 14336 ft | 405 kts | 159° |
| 2026-04-30 00:16 | 54.02053 | 18.49224 | 14915 ft | 409 kts | 159° |
| 2026-04-30 00:16 | 53.99333 | 18.50743 | 15452 ft | 414 kts | 158° |
| 2026-04-30 00:17 | 53.96623 | 18.52253 | 16006 ft | 418 kts | 158° |
| 2026-04-30 00:17 | 53.93842 | 18.53800 | 16549 ft | 422 kts | 158° |
| 2026-04-30 00:17 | 53.91040 | 18.55357 | 17101 ft | 426 kts | 158° |
| 2026-04-30 00:17 | 53.88212 | 18.56926 | 17632 ft | 430 kts | 158° |
| 2026-04-30 00:18 | 53.85359 | 18.58507 | 18171 ft | 434 kts | 158° |
| 2026-04-30 00:18 | 53.82463 | 18.60109 | 18688 ft | 438 kts | 157° |
| 2026-04-30 00:18 | 53.79545 | 18.61721 | 19159 ft | 441 kts | 157° |
| 2026-04-30 00:18 | 53.76638 | 18.63325 | 19610 ft | 445 kts | 157° |
| 2026-04-30 00:19 | 53.73685 | 18.64952 | 20040 ft | 448 kts | 157° |
| 2026-04-30 00:19 | 53.70702 | 18.66592 | 20472 ft | 451 kts | 157° |
| 2026-04-30 00:19 | 53.67709 | 18.68236 | 20894 ft | 454 kts | 157° |
| 2026-04-30 00:19 | 53.64686 | 18.69893 | 21318 ft | 457 kts | 157° |
| 2026-04-30 00:20 | 53.61639 | 18.71564 | 21497 ft | 465 kts | 157° |
| 2026-04-30 00:20 | 53.58555 | 18.73249 | 21509 ft | 464 kts | 157° |
| 2026-04-30 00:20 | 53.55478 | 18.74923 | 21958 ft | 462 kts | 157° |
| 2026-04-30 00:20 | 53.52410 | 18.76597 | 22366 ft | 466 kts | 157° |
| 2026-04-30 00:21 | 53.49358 | 18.78263 | 22755 ft | 468 kts | 157° |
| 2026-04-30 00:21 | 53.46238 | 18.79958 | 23133 ft | 471 kts | 157° |
| 2026-04-30 00:21 | 53.43104 | 18.81655 | 23506 ft | 474 kts | 157° |
| 2026-04-30 00:21 | 53.39953 | 18.83362 | 23877 ft | 477 kts | 157° |
| 2026-04-30 00:22 | 53.36785 | 18.85076 | 24197 ft | 480 kts | 157° |
| 2026-04-30 00:22 | 53.33593 | 18.86800 | 24483 ft | 482 kts | 156° |
| 2026-04-30 00:22 | 53.30428 | 18.88506 | 24780 ft | 484 kts | 156° |
| 2026-04-30 00:22 | 53.27202 | 18.90242 | 25058 ft | 487 kts | 156° |
| 2026-04-30 00:23 | 53.23974 | 18.91978 | 25338 ft | 489 kts | 156° |
| 2026-04-30 00:23 | 53.20711 | 18.93728 | 25612 ft | 491 kts | 156° |
| 2026-04-30 00:23 | 53.17446 | 18.95477 | 25883 ft | 493 kts | 156° |
| 2026-04-30 00:23 | 53.14168 | 18.97231 | 26159 ft | 495 kts | 156° |
| 2026-04-30 00:24 | 53.10912 | 18.98969 | 26436 ft | 497 kts | 156° |
| 2026-04-30 00:24 | 53.07605 | 19.00733 | 26705 ft | 499 kts | 156° |
| 2026-04-30 00:24 | 53.04287 | 19.02499 | 26974 ft | 501 kts | 156° |
| 2026-04-30 00:24 | 53.00948 | 19.04273 | 27259 ft | 503 kts | 156° |
| 2026-04-30 00:25 | 52.97606 | 19.06046 | 27546 ft | 505 kts | 156° |
| 2026-04-30 00:25 | 52.94239 | 19.07830 | 27799 ft | 508 kts | 156° |
| 2026-04-30 00:25 | 52.90845 | 19.09629 | 27796 ft | 516 kts | 156° |
| 2026-04-30 00:25 | 52.87386 | 19.11457 | 27808 ft | 524 kts | 156° |
| 2026-04-30 00:26 | 52.83940 | 19.13270 | 27830 ft | 531 kts | 156° |
| 2026-04-30 00:26 | 52.80383 | 19.15140 | 27868 ft | 537 kts | 156° |
| 2026-04-30 00:26 | 52.76805 | 19.17019 | 27889 ft | 543 kts | 157° |
| 2026-04-30 00:26 | 52.73202 | 19.18907 | 28176 ft | 542 kts | 157° |
| 2026-04-30 00:27 | 52.69594 | 19.20792 | 28498 ft | 542 kts | 156° |
| 2026-04-30 00:27 | 52.66039 | 19.22651 | 28835 ft | 541 kts | 156° |
| 2026-04-30 00:27 | 52.62441 | 19.24530 | 29168 ft | 541 kts | 156° |
| 2026-04-30 00:27 | 52.58844 | 19.26402 | 29534 ft | 540 kts | 156° |
| 2026-04-30 00:28 | 52.55249 | 19.28270 | 29921 ft | 539 kts | 156° |
| 2026-04-30 00:28 | 52.51664 | 19.30091 | 30289 ft | 539 kts | 157° |
| 2026-04-30 00:28 | 52.48106 | 19.31854 | 30658 ft | 539 kts | 157° |
| 2026-04-30 00:28 | 52.44516 | 19.33648 | 30997 ft | 538 kts | 156° |
| 2026-04-30 00:29 | 52.40926 | 19.35467 | 31331 ft | 538 kts | 156° |
| 2026-04-30 00:29 | 52.37351 | 19.37270 | 31690 ft | 537 kts | 156° |
| 2026-04-30 00:29 | 52.33767 | 19.39055 | 32056 ft | 537 kts | 156° |
| 2026-04-30 00:29 | 52.30193 | 19.40834 | 32427 ft | 537 kts | 156° |
| 2026-04-30 00:30 | 52.26663 | 19.42598 | 32814 ft | 536 kts | 156° |
| 2026-04-30 00:30 | 52.23099 | 19.44378 | 33204 ft | 536 kts | 156° |
| 2026-04-30 00:30 | 52.19533 | 19.46150 | 33615 ft | 535 kts | 156° |
| 2026-04-30 00:30 | 52.15966 | 19.47917 | 34038 ft | 535 kts | 157° |
| 2026-04-30 00:31 | 52.12400 | 19.49684 | 34450 ft | 534 kts | 157° |
| 2026-04-30 00:31 | 52.08845 | 19.51444 | 34796 ft | 533 kts | 157° |
| 2026-04-30 00:31 | 52.05292 | 19.53199 | 35170 ft | 532 kts | 158° |
| 2026-04-30 00:31 | 52.01751 | 19.54944 | 35530 ft | 531 kts | 158° |
| 2026-04-30 00:32 | 51.98214 | 19.56686 | 35917 ft | 530 kts | 158° |
| 2026-04-30 00:32 | 51.94731 | 19.58399 | 36284 ft | 528 kts | 158° |
| 2026-04-30 00:32 | 51.91209 | 19.60128 | 36650 ft | 527 kts | 159° |
| 2026-04-30 00:32 | 51.87694 | 19.61849 | 37021 ft | 526 kts | 159° |
| 2026-04-30 00:33 | 51.84191 | 19.63563 | 37391 ft | 525 kts | 159° |
| 2026-04-30 00:33 | 51.80692 | 19.65273 | 37758 ft | 524 kts | 160° |
| 2026-04-30 00:33 | 51.77279 | 19.67112 | 38088 ft | 522 kts | 158° |
| 2026-04-30 00:33 | 51.73822 | 19.68924 | 38413 ft | 521 kts | 160° |
| 2026-04-30 00:34 | 51.70366 | 19.70689 | 38769 ft | 520 kts | 159° |
| 2026-04-30 00:34 | 51.66919 | 19.72511 | 39104 ft | 519 kts | 159° |
| 2026-04-30 00:34 | 51.63488 | 19.74350 | 39361 ft | 519 kts | 160° |
| 2026-04-30 00:35 | 51.56568 | 19.77959 | 39434 ft | 524 kts | 160° |
| 2026-04-30 00:35 | 51.49703 | 19.81552 | 39433 ft | 519 kts | 160° |
| 2026-04-30 00:36 | 51.42835 | 19.85160 | 39428 ft | 518 kts | 160° |
| 2026-04-30 00:36 | 51.35960 | 19.88722 | 39425 ft | 519 kts | 160° |
| 2026-04-30 00:37 | 51.29129 | 19.92276 | 39429 ft | 519 kts | 160° |
| 2026-04-30 00:37 | 51.22244 | 19.95838 | 39427 ft | 520 kts | 160° |
| 2026-04-30 00:38 | 51.15398 | 19.99451 | 39432 ft | 520 kts | 160° |
| 2026-04-30 00:38 | 51.08512 | 20.03079 | 39435 ft | 521 kts | 160° |
| 2026-04-30 00:39 | 51.01613 | 20.06690 | 39438 ft | 522 kts | 160° |
| 2026-04-30 00:39 | 50.94699 | 20.10310 | 39443 ft | 524 kts | 160° |
| 2026-04-30 00:40 | 50.87736 | 20.13936 | 39450 ft | 535 kts | 160° |
| 2026-04-30 00:40 | 50.80579 | 20.17655 | 39451 ft | 545 kts | 160° |
| 2026-04-30 00:41 | 50.73336 | 20.21402 | 39450 ft | 548 kts | 160° |
| 2026-04-30 00:41 | 50.66131 | 20.25122 | 39436 ft | 547 kts | 160° |
| 2026-04-30 00:42 | 50.58885 | 20.28849 | 39436 ft | 547 kts | 160° |
| 2026-04-30 00:42 | 50.51725 | 20.32893 | 39431 ft | 546 kts | 158° |
| 2026-04-30 00:43 | 50.44633 | 20.37020 | 39441 ft | 546 kts | 158° |
| 2026-04-30 00:43 | 50.37528 | 20.41250 | 39442 ft | 545 kts | 158° |
| 2026-04-30 00:44 | 50.30414 | 20.45412 | 39449 ft | 545 kts | 158° |
| 2026-04-30 00:44 | 50.26831 | 20.47514 | 39440 ft | 545 kts | 158° |
| 2026-04-30 00:45 | 50.19763 | 20.51662 | 39448 ft | 545 kts | 158° |
| 2026-04-30 00:45 | 50.12647 | 20.55805 | 39443 ft | 545 kts | 158° |
| 2026-04-30 00:46 | 50.05529 | 20.59949 | 39442 ft | 545 kts | 158° |
| 2026-04-30 00:46 | 49.98465 | 20.64040 | 39441 ft | 545 kts | 158° |
| 2026-04-30 00:47 | 49.91343 | 20.68158 | 39442 ft | 544 kts | 158° |
| 2026-04-30 00:47 | 49.84233 | 20.72252 | 39443 ft | 543 kts | 159° |
| 2026-04-30 00:48 | 49.77201 | 20.76290 | 39443 ft | 542 kts | 159° |
| 2026-04-30 00:48 | 49.70118 | 20.80344 | 39444 ft | 542 kts | 159° |